createdAt,value
2019-06-07T00:00:27.317Z,11.32
2019-06-07T00:01:08.447Z,11.29
2019-06-07T00:02:06.013Z,11.26
2019-06-07T00:03:09.252Z,11.15
2019-06-07T00:04:08.503Z,11.18
2019-06-07T00:05:07.383Z,11.22
2019-06-07T00:06:07.122Z,11.18
2019-06-07T00:07:09.072Z,11.27
2019-06-07T00:08:10.782Z,11.19
2019-06-07T00:09:08.180Z,11.30
2019-06-07T00:10:06.875Z,11.27
2019-06-07T00:11:07.490Z,11.26
2019-06-07T00:12:09.145Z,11.27
2019-06-07T00:13:06.899Z,11.26
2019-06-07T00:14:05.917Z,11.25
2019-06-07T00:15:10.552Z,11.19
2019-06-07T00:16:05.867Z,11.25
2019-06-07T00:17:07.788Z,11.18
2019-06-07T00:18:10.263Z,11.14
2019-06-07T00:19:05.834Z,11.14
2019-06-07T00:20:05.823Z,11.10
2019-06-07T00:21:05.813Z,11.05
2019-06-07T00:22:16.538Z,11.10
2019-06-07T00:23:05.792Z,11.08
2019-06-07T00:24:05.781Z,10.94
2019-06-07T00:25:05.770Z,10.94
2019-06-07T00:26:05.761Z,11.00
2019-06-07T00:27:05.751Z,11.07
2019-06-07T00:28:05.738Z,11.10
2019-06-07T00:29:05.729Z,11.07
2019-06-07T00:30:29.728Z,11.12
2019-06-07T00:31:05.709Z,11.02
2019-06-07T00:32:05.697Z,11.07
2019-06-07T00:33:05.686Z,10.93
2019-06-07T00:34:05.677Z,11.04
2019-06-07T00:35:05.690Z,11.04
2019-06-07T00:36:05.655Z,10.99
2019-06-07T00:37:07.088Z,11.14
2019-06-07T00:38:05.634Z,11.02
2019-06-07T00:39:05.624Z,11.05
2019-06-07T00:40:17.970Z,11.12
2019-06-07T00:41:05.602Z,11.00
2019-06-07T00:42:05.597Z,11.04
2019-06-07T00:43:05.581Z,10.99
2019-06-07T00:44:05.570Z,11.05
2019-06-07T00:45:05.559Z,11.12
2019-06-07T00:46:05.549Z,11.04
2019-06-07T00:47:05.541Z,11.07
2019-06-07T00:48:05.673Z,11.02
2019-06-07T00:49:05.517Z,11.12
2019-06-07T00:50:05.506Z,11.07
2019-06-07T00:51:05.496Z,11.10
2019-06-07T00:52:05.486Z,11.04
2019-06-07T00:53:16.893Z,11.07
2019-06-07T00:54:05.463Z,11.15
2019-06-07T00:55:05.454Z,11.12
2019-06-07T00:56:05.446Z,11.07
2019-06-07T00:57:05.458Z,11.08
2019-06-07T00:58:05.421Z,11.10
2019-06-07T00:59:11.237Z,11.07
2019-06-07T01:00:05.401Z,10.97
2019-06-07T01:01:05.391Z,11.02
2019-06-07T01:02:05.675Z,11.05
2019-06-07T01:03:05.368Z,11.07
2019-06-07T01:04:05.357Z,11.07
2019-06-07T01:05:05.347Z,11.08
2019-06-07T01:06:05.336Z,10.97
2019-06-07T01:07:05.376Z,11.02
2019-06-07T01:08:05.316Z,10.99
2019-06-07T01:09:05.303Z,11.00
2019-06-07T01:10:05.293Z,10.96
2019-06-07T01:11:05.284Z,10.93
2019-06-07T01:12:05.272Z,10.97
2019-06-07T01:13:05.263Z,10.87
2019-06-07T01:14:05.251Z,11.04
2019-06-07T01:15:05.241Z,11.00
2019-06-07T01:16:05.229Z,11.02
2019-06-07T01:17:22.535Z,11.00
2019-06-07T01:18:36.149Z,10.96
2019-06-07T01:19:05.198Z,10.97
2019-06-07T01:20:05.186Z,11.02
2019-06-07T01:21:05.182Z,10.92
2019-06-07T01:22:05.171Z,10.97
2019-06-07T01:23:05.183Z,10.94
2019-06-07T01:24:12.086Z,10.99
2019-06-07T01:25:05.133Z,10.86
2019-06-07T01:26:05.123Z,10.96
2019-06-07T01:27:05.113Z,10.93
2019-06-07T01:28:05.103Z,10.82
2019-06-07T01:29:05.091Z,10.90
2019-06-07T01:30:05.081Z,10.86
2019-06-07T01:31:05.070Z,10.90
2019-06-07T01:32:05.061Z,10.89
2019-06-07T01:33:05.048Z,10.75
2019-06-07T01:34:05.040Z,10.81
2019-06-07T01:35:05.028Z,10.82
2019-06-07T01:36:05.016Z,10.84
2019-06-07T01:37:05.005Z,10.93
2019-06-07T01:38:04.995Z,10.81
2019-06-07T01:39:04.984Z,10.89
2019-06-07T01:40:04.977Z,10.82
2019-06-07T01:41:04.963Z,10.84
2019-06-07T01:42:04.952Z,10.81
2019-06-07T01:43:04.949Z,10.84
2019-06-07T01:44:04.931Z,10.86
2019-06-07T01:45:04.921Z,10.82
2019-06-07T01:46:04.910Z,10.97
2019-06-07T01:47:04.900Z,10.94
2019-06-07T01:48:04.892Z,11.05
2019-06-07T01:49:04.877Z,11.05
2019-06-07T01:50:04.866Z,10.96
2019-06-07T01:51:05.269Z,10.97
2019-06-07T01:52:04.844Z,10.89
2019-06-07T01:53:04.834Z,10.94
2019-06-07T01:55:04.813Z,11.00
2019-06-07T01:56:04.802Z,10.90
2019-06-07T01:57:04.793Z,10.96
2019-06-07T01:58:04.781Z,11.07
2019-06-07T01:59:04.772Z,11.04
2019-06-07T02:00:04.760Z,11.11
2019-06-07T02:01:04.748Z,11.15
2019-06-07T02:02:04.738Z,11.14
2019-06-07T02:03:04.760Z,11.15
2019-06-07T02:04:04.718Z,11.15
2019-06-07T02:05:04.706Z,11.18
2019-06-07T02:06:04.695Z,11.14
2019-06-07T02:07:04.686Z,11.29
2019-06-07T02:08:04.674Z,11.27
2019-06-07T02:09:04.663Z,11.26
2019-06-07T02:10:04.653Z,11.18
2019-06-07T02:11:04.642Z,11.27
2019-06-07T02:12:24.622Z,11.30
2019-06-07T02:13:04.621Z,11.22
2019-06-07T02:14:04.610Z,11.29
2019-06-07T02:15:04.600Z,11.27
2019-06-07T02:16:04.588Z,11.14
2019-06-07T02:17:04.578Z,11.19
2019-06-07T02:18:04.569Z,11.17
2019-06-07T02:19:04.562Z,11.18
2019-06-07T02:20:04.546Z,11.11
2019-06-07T02:21:04.535Z,11.11
2019-06-07T02:22:04.527Z,11.17
2019-06-07T02:23:04.527Z,11.14
2019-06-07T02:24:04.512Z,11.00
2019-06-07T02:25:35.174Z,11.07
2019-06-07T02:26:04.483Z,11.04
2019-06-07T02:27:04.473Z,11.00
2019-06-07T02:28:26.494Z,10.94
2019-06-07T02:29:04.451Z,11.00
2019-06-07T02:30:35.412Z,10.99
2019-06-07T02:31:04.431Z,11.05
2019-06-07T02:32:04.423Z,11.02
2019-06-07T02:33:04.409Z,10.97
2019-06-07T02:34:04.400Z,11.05
2019-06-07T02:35:04.388Z,11.00
2019-06-07T02:36:04.386Z,10.97
2019-06-07T02:37:04.367Z,10.94
2019-06-07T02:38:04.357Z,10.92
2019-06-07T02:39:04.345Z,10.82
2019-06-07T02:40:04.336Z,10.90
2019-06-07T02:41:04.336Z,10.92
2019-06-07T02:42:04.319Z,11.02
2019-06-07T02:43:04.313Z,10.96
2019-06-07T02:44:04.299Z,10.93
2019-06-07T02:45:04.282Z,10.90
2019-06-07T02:46:24.522Z,10.89
2019-06-07T02:47:04.268Z,10.90
2019-06-07T02:48:04.255Z,10.78
2019-06-07T02:49:04.239Z,10.82
2019-06-07T02:50:04.234Z,10.75
2019-06-07T02:51:04.219Z,10.74
2019-06-07T02:52:04.215Z,10.76
2019-06-07T02:53:04.196Z,10.72
2019-06-07T02:54:04.187Z,10.72
2019-06-07T02:55:04.176Z,10.71
2019-06-07T02:57:04.188Z,10.60
2019-06-07T02:58:04.150Z,10.60
2019-06-07T02:59:04.132Z,10.53
2019-06-07T03:00:27.158Z,10.53
2019-06-07T03:01:09.021Z,10.51
2019-06-07T03:02:04.103Z,10.49
2019-06-07T03:03:04.092Z,10.28
2019-06-07T03:04:04.083Z,10.35
2019-06-07T03:05:04.087Z,10.37
2019-06-07T03:06:04.075Z,10.22
2019-06-07T03:07:04.048Z,10.20
2019-06-07T03:08:04.037Z,10.28
2019-06-07T03:09:04.025Z,10.26
2019-06-07T03:10:04.016Z,10.20
2019-06-07T03:11:04.008Z,10.23
2019-06-07T03:12:03.995Z,10.17
2019-06-07T03:13:03.983Z,10.15
2019-06-07T03:14:03.974Z,10.12
2019-06-07T03:15:03.984Z,10.13
2019-06-07T03:16:03.959Z,10.12
2019-06-07T03:17:03.940Z,10.04
2019-06-07T03:18:03.930Z,10.10
2019-06-07T03:19:03.920Z,10.09
2019-06-07T03:20:03.913Z,9.98
2019-06-07T03:21:05.592Z,10.09
2019-06-07T03:22:03.889Z,10.02
2019-06-07T03:23:03.877Z,10.07
2019-06-07T03:24:03.941Z,10.01
2019-06-07T03:25:03.854Z,9.94
2019-06-07T03:26:03.847Z,9.94
2019-06-07T03:27:34.173Z,10.04
2019-06-07T03:28:03.821Z,9.95
2019-06-07T03:29:03.825Z,9.94
2019-06-07T03:30:35.222Z,10.01
2019-06-07T03:31:03.791Z,10.07
2019-06-07T03:32:03.779Z,10.05
2019-06-07T03:33:03.769Z,10.09
2019-06-07T03:34:03.807Z,10.04
2019-06-07T03:35:03.745Z,10.05
2019-06-07T03:36:22.712Z,10.02
2019-06-07T03:37:03.722Z,10.16
2019-06-07T03:38:03.712Z,10.10
2019-06-07T03:39:03.711Z,10.23
2019-06-07T03:40:03.690Z,10.31
2019-06-07T03:41:03.679Z,10.31
2019-06-07T03:42:06.756Z,10.38
2019-06-07T03:43:03.658Z,10.44
2019-06-07T03:44:03.646Z,10.49
2019-06-07T03:45:03.636Z,10.49
2019-06-07T03:46:03.628Z,10.59
2019-06-07T03:47:03.614Z,10.56
2019-06-07T03:48:03.610Z,10.57
2019-06-07T03:49:03.621Z,10.72
2019-06-07T03:50:03.586Z,10.72
2019-06-07T03:51:04.979Z,10.74
2019-06-07T03:52:03.560Z,10.74
2019-06-07T03:53:03.614Z,10.78
2019-06-07T03:54:03.540Z,10.76
2019-06-07T03:55:03.528Z,10.82
2019-06-07T03:56:03.558Z,10.79
2019-06-07T03:57:04.696Z,10.93
2019-06-07T03:58:32.709Z,10.92
2019-06-07T03:59:03.485Z,10.92
2019-06-07T04:00:03.472Z,10.99
2019-06-07T04:01:03.463Z,11.07
2019-06-07T04:02:03.451Z,11.10
2019-06-07T04:03:03.441Z,11.10
2019-06-07T04:04:03.429Z,11.12
2019-06-07T04:05:03.436Z,11.15
2019-06-07T04:06:03.413Z,11.18
2019-06-07T04:07:03.396Z,11.26
2019-06-07T04:08:03.449Z,11.29
2019-06-07T04:09:03.376Z,11.41
2019-06-07T04:10:03.371Z,11.36
2019-06-07T04:11:03.398Z,11.43
2019-06-07T04:12:03.344Z,11.50
2019-06-07T04:13:03.336Z,11.48
2019-06-07T04:14:03.322Z,11.55
2019-06-07T04:15:03.311Z,11.62
2019-06-07T04:16:03.320Z,11.62
2019-06-07T04:17:03.293Z,11.65
2019-06-07T04:18:04.097Z,11.66
2019-06-07T04:19:03.275Z,11.63
2019-06-07T04:20:03.280Z,11.66
2019-06-07T04:21:03.252Z,11.65
2019-06-07T04:22:03.408Z,11.75
2019-06-07T04:23:03.227Z,11.80
2019-06-07T04:24:03.216Z,11.86
2019-06-07T04:25:03.210Z,11.88
2019-06-07T04:26:03.195Z,11.83
2019-06-07T04:27:03.184Z,11.90
2019-06-07T04:28:03.174Z,11.97
2019-06-07T04:29:47.317Z,11.95
2019-06-07T04:30:07.891Z,12.00
2019-06-07T04:31:03.143Z,11.99
2019-06-07T04:32:04.435Z,11.99
2019-06-07T04:33:03.123Z,12.00
2019-06-07T04:34:03.112Z,11.95
2019-06-07T04:35:03.109Z,11.99
2019-06-07T04:36:03.091Z,11.99
2019-06-07T04:37:03.082Z,11.97
2019-06-07T04:38:03.069Z,12.06
2019-06-07T04:39:03.059Z,12.00
2019-06-07T04:40:03.050Z,12.02
2019-06-07T04:41:03.038Z,12.03
2019-06-07T04:42:03.036Z,12.10
2019-06-07T04:43:03.025Z,11.99
2019-06-07T04:44:03.010Z,12.00
2019-06-07T04:45:03.032Z,12.00
2019-06-07T04:46:03.004Z,12.10
2019-06-07T04:47:02.977Z,12.09
2019-06-07T04:48:02.965Z,12.15
2019-06-07T04:49:02.955Z,12.17
2019-06-07T04:50:02.948Z,12.21
2019-06-07T04:51:02.976Z,12.20
2019-06-07T04:52:02.924Z,12.18
2019-06-07T04:53:02.920Z,12.20
2019-06-07T04:54:02.905Z,12.24
2019-06-07T04:55:02.894Z,12.32
2019-06-07T04:56:02.885Z,12.27
2019-06-07T04:57:02.873Z,12.32
2019-06-07T04:58:02.864Z,12.37
2019-06-07T04:59:02.854Z,12.42
2019-06-07T05:00:33.187Z,12.40
2019-06-07T05:01:03.622Z,12.43
2019-06-07T05:02:02.822Z,12.47
2019-06-07T05:03:02.813Z,12.58
2019-06-07T05:04:02.844Z,12.53
2019-06-07T05:05:02.792Z,12.55
2019-06-07T05:06:02.783Z,12.55
2019-06-07T05:07:02.772Z,12.57
2019-06-07T05:08:07.413Z,12.68
2019-06-07T05:09:02.752Z,12.79
2019-06-07T05:10:02.767Z,12.79
2019-06-07T05:11:02.732Z,12.72
2019-06-07T05:12:02.731Z,12.70
2019-06-07T05:13:02.712Z,12.73
2019-06-07T05:14:02.712Z,12.73
2019-06-07T05:15:02.694Z,12.80
2019-06-07T05:16:02.681Z,12.80
2019-06-07T05:17:02.671Z,12.83
2019-06-07T05:18:02.662Z,12.87
2019-06-07T05:19:02.652Z,12.90
2019-06-07T05:20:02.646Z,12.94
2019-06-07T05:21:02.632Z,12.95
2019-06-07T05:22:05.078Z,12.93
2019-06-07T05:23:02.619Z,13.00
2019-06-07T05:24:09.779Z,12.97
2019-06-07T05:25:02.593Z,12.95
2019-06-07T05:26:02.583Z,13.00
2019-06-07T05:27:02.616Z,13.09
2019-06-07T05:28:02.562Z,13.04
2019-06-07T05:29:02.554Z,13.08
2019-06-07T05:30:36.515Z,13.09
2019-06-07T05:31:05.719Z,13.13
2019-06-07T05:32:02.522Z,13.13
2019-06-07T05:33:02.514Z,13.11
2019-06-07T05:34:02.504Z,13.27
2019-06-07T05:35:02.510Z,13.28
2019-06-07T05:36:02.494Z,13.47
2019-06-07T05:37:11.390Z,13.44
2019-06-07T05:38:02.466Z,13.49
2019-06-07T05:39:02.459Z,13.53
2019-06-07T05:40:02.445Z,13.63
2019-06-07T05:41:02.438Z,13.63
2019-06-07T05:42:02.426Z,13.63
2019-06-07T05:43:02.420Z,13.63
2019-06-07T05:44:12.722Z,13.78
2019-06-07T05:45:02.405Z,13.79
2019-06-07T05:46:02.400Z,13.85
2019-06-07T05:47:02.380Z,14.03
2019-06-07T05:48:02.676Z,14.04
2019-06-07T05:49:02.359Z,14.18
2019-06-07T05:50:02.975Z,14.20
2019-06-07T05:51:02.354Z,14.30
2019-06-07T05:52:02.336Z,14.28
2019-06-07T05:53:02.329Z,14.36
2019-06-07T05:54:02.358Z,14.37
2019-06-07T05:55:02.353Z,14.45
2019-06-07T05:56:02.390Z,14.50
2019-06-07T05:57:02.339Z,14.47
2019-06-07T05:58:02.279Z,14.53
2019-06-07T05:59:02.270Z,14.54
2019-06-07T06:00:02.361Z,14.50
2019-06-07T06:01:41.605Z,14.47
2019-06-07T06:02:09.460Z,14.47
2019-06-07T06:03:05.847Z,14.44
2019-06-07T06:04:02.274Z,14.33
2019-06-07T06:05:02.598Z,14.29
2019-06-07T06:06:02.208Z,14.32
2019-06-07T06:07:02.201Z,14.29
2019-06-07T06:08:02.193Z,14.11
2019-06-07T06:09:13.327Z,14.05
2019-06-07T06:10:02.183Z,14.11
2019-06-07T06:11:02.169Z,14.04
2019-06-07T06:12:02.654Z,14.04
2019-06-07T06:13:02.147Z,14.12
2019-06-07T06:14:08.109Z,14.12
2019-06-07T06:15:02.129Z,14.15
2019-06-07T06:16:02.555Z,14.18
2019-06-07T06:17:02.111Z,14.25
2019-06-07T06:18:02.103Z,14.30
2019-06-07T06:19:02.094Z,14.36
2019-06-07T06:20:02.087Z,14.32
2019-06-07T06:21:16.088Z,14.37
2019-06-07T06:22:02.067Z,14.40
2019-06-07T06:23:02.085Z,14.53
2019-06-07T06:24:02.112Z,14.63
2019-06-07T06:25:30.598Z,14.58
2019-06-07T06:26:02.033Z,14.62
2019-06-07T06:27:18.874Z,14.66
2019-06-07T06:28:10.962Z,14.77
2019-06-07T06:29:02.007Z,14.86
2019-06-07T06:30:01.999Z,14.88
2019-06-07T06:31:01.991Z,15.04
2019-06-07T06:32:40.442Z,14.99
2019-06-07T06:33:01.979Z,15.02
2019-06-07T06:34:01.965Z,15.10
2019-06-07T06:35:02.132Z,15.21
2019-06-07T06:36:01.948Z,15.18
2019-06-07T06:37:01.941Z,15.17
2019-06-07T06:38:01.936Z,15.14
2019-06-07T06:39:01.925Z,15.15
2019-06-07T06:40:01.920Z,15.25
2019-06-07T06:41:15.292Z,15.35
2019-06-07T06:42:03.909Z,15.49
2019-06-07T06:43:01.894Z,15.57
2019-06-07T06:44:01.884Z,15.62
2019-06-07T06:45:01.914Z,15.58
2019-06-07T06:46:01.914Z,15.61
2019-06-07T06:47:01.862Z,15.54
2019-06-07T06:48:01.854Z,15.55
2019-06-07T06:49:01.846Z,15.51
2019-06-07T06:50:01.841Z,15.57
2019-06-07T06:51:01.834Z,15.52
2019-06-07T06:52:01.823Z,15.59
2019-06-07T06:53:01.815Z,15.59
2019-06-07T06:54:01.808Z,15.65
2019-06-07T06:55:01.803Z,15.67
2019-06-07T06:56:01.794Z,15.65
2019-06-07T06:57:19.105Z,15.55
2019-06-07T06:58:01.778Z,15.58
2019-06-07T07:00:01.763Z,15.75
2019-06-07T07:01:06.391Z,15.83
2019-06-07T07:02:01.749Z,16.10
2019-06-07T07:03:47.213Z,16.00
2019-06-07T07:04:12.552Z,16.04
2019-06-07T07:05:01.727Z,16.35
2019-06-07T07:06:24.779Z,16.50
2019-06-07T07:07:01.715Z,16.71
2019-06-07T07:08:01.730Z,16.78
2019-06-07T07:09:01.703Z,16.86
2019-06-07T07:10:03.058Z,16.89
2019-06-07T07:11:01.692Z,16.75
2019-06-07T07:12:11.948Z,16.84
2019-06-07T07:13:01.717Z,16.74
2019-06-07T07:14:01.681Z,16.75
2019-06-07T07:15:01.767Z,16.86
2019-06-07T07:16:01.670Z,16.99
2019-06-07T07:17:01.662Z,17.11
2019-06-07T07:18:08.459Z,17.14
2019-06-07T07:19:01.655Z,17.09
2019-06-07T07:20:01.702Z,17.22
2019-06-07T07:21:01.647Z,17.15
2019-06-07T07:22:01.670Z,17.22
2019-06-07T07:23:01.718Z,17.19
2019-06-07T07:24:20.156Z,17.11
2019-06-07T07:25:01.634Z,17.11
2019-06-07T07:26:01.631Z,17.02
2019-06-07T07:27:01.627Z,17.06
2019-06-07T07:28:01.632Z,16.99
2019-06-07T07:29:01.620Z,17.12
2019-06-07T07:30:34.672Z,17.19
2019-06-07T07:31:01.614Z,17.39
2019-06-07T07:32:01.613Z,17.39
2019-06-07T07:33:01.652Z,17.60
2019-06-07T07:35:01.603Z,17.72
2019-06-07T07:36:23.124Z,17.70
2019-06-07T07:37:01.599Z,17.79
2019-06-07T07:38:01.613Z,17.71
2019-06-07T07:39:05.337Z,17.70
2019-06-07T07:40:47.555Z,17.60
2019-06-07T07:41:13.860Z,17.48
2019-06-07T07:42:20.229Z,17.51
2019-06-07T07:43:01.590Z,17.71
2019-06-07T07:44:06.552Z,17.67
2019-06-07T07:45:01.587Z,17.86
2019-06-07T07:46:03.279Z,17.90
2019-06-07T07:47:01.589Z,18.05
2019-06-07T07:48:15.284Z,18.19
2019-06-07T07:49:01.582Z,18.20
2019-06-07T07:50:01.582Z,18.19
2019-06-07T07:51:03.458Z,18.43
2019-06-07T07:52:01.581Z,18.71
2019-06-07T07:53:01.707Z,18.93
2019-06-07T07:54:10.600Z,18.92
2019-06-07T07:55:01.591Z,19.12
2019-06-07T07:56:01.759Z,18.95
2019-06-07T07:57:01.583Z,18.88
2019-06-07T07:58:02.051Z,18.90
2019-06-07T07:59:02.804Z,18.78
2019-06-07T08:00:48.013Z,18.81
2019-06-07T08:01:10.267Z,18.95
2019-06-07T08:02:01.589Z,18.98
2019-06-07T08:03:04.281Z,19.26
2019-06-07T08:04:01.592Z,19.48
2019-06-07T08:05:25.513Z,19.47
2019-06-07T08:06:01.605Z,19.55
2019-06-07T08:07:01.607Z,19.36
2019-06-07T08:08:05.365Z,19.00
2019-06-07T08:09:01.606Z,18.83
2019-06-07T08:10:04.135Z,18.88
2019-06-07T08:11:02.407Z,18.73
2019-06-07T08:12:02.598Z,18.83
2019-06-07T08:13:22.265Z,19.00
2019-06-07T08:14:01.619Z,19.27
2019-06-07T08:15:03.520Z,19.44
2019-06-07T08:16:10.745Z,19.66
2019-06-07T08:17:01.617Z,20.16
2019-06-07T08:18:04.505Z,20.25
2019-06-07T08:19:03.816Z,20.47
2019-06-07T08:20:02.960Z,20.72
2019-06-07T08:21:21.407Z,20.43
2019-06-07T08:22:01.941Z,20.26
2019-06-07T08:23:01.634Z,20.10
2019-06-07T08:24:05.123Z,19.89
2019-06-07T08:25:04.248Z,19.99
2019-06-07T08:26:01.640Z,20.19
2019-06-07T08:27:24.631Z,19.91
2019-06-07T08:28:01.644Z,19.94
2019-06-07T08:29:02.944Z,19.82
2019-06-07T08:30:25.688Z,19.89
2019-06-07T08:31:07.012Z,20.03
2019-06-07T08:32:01.653Z,20.28
2019-06-07T08:33:24.828Z,20.67
2019-06-07T08:34:01.662Z,20.77
2019-06-07T08:35:05.829Z,20.70
2019-06-07T08:36:19.423Z,20.80
2019-06-07T08:37:02.202Z,20.63
2019-06-07T08:38:25.329Z,20.77
2019-06-07T08:39:07.254Z,20.84
2019-06-07T08:40:02.109Z,21.07
2019-06-07T08:41:10.948Z,21.36
2019-06-07T08:42:15.432Z,21.66
2019-06-07T08:43:15.234Z,21.95
2019-06-07T08:44:21.710Z,22.06
2019-06-07T08:45:05.457Z,21.91
2019-06-07T08:46:07.096Z,21.70
2019-06-07T08:47:19.301Z,21.51
2019-06-07T08:48:09.485Z,21.15
2019-06-07T08:49:04.575Z,21.06
2019-06-07T08:50:07.493Z,21.30
2019-06-07T08:51:08.170Z,21.52
2019-06-07T08:52:10.515Z,21.60
2019-06-07T08:53:11.447Z,21.67
2019-06-07T08:54:21.034Z,21.42
2019-06-07T08:55:04.905Z,21.57
2019-06-07T08:56:09.712Z,21.69
2019-06-07T08:57:19.338Z,21.66
2019-06-07T08:58:08.193Z,21.67
2019-06-07T08:59:10.771Z,21.82
2019-06-07T09:00:16.141Z,21.83
2019-06-07T09:01:07.709Z,21.88
2019-06-07T09:02:09.105Z,22.15
2019-06-07T09:03:05.216Z,22.43
2019-06-07T09:04:07.757Z,22.62
2019-06-07T09:05:10.605Z,22.98
2019-06-07T09:06:16.139Z,23.20
2019-06-07T09:07:12.093Z,23.32
2019-06-07T09:08:23.628Z,23.36
2019-06-07T09:09:04.828Z,23.09
2019-06-07T09:10:09.576Z,23.00
2019-06-07T09:11:06.343Z,23.18
2019-06-07T09:12:07.999Z,23.37
2019-06-07T09:13:09.957Z,23.31
2019-06-07T09:14:08.398Z,23.12
2019-06-07T09:15:14.774Z,22.91
2019-06-07T09:16:08.090Z,23.18
2019-06-07T09:17:10.248Z,23.43
2019-06-07T09:19:10.058Z,24.14
2019-06-07T09:20:09.424Z,24.21
2019-06-07T09:21:07.721Z,24.43
2019-06-07T09:22:08.231Z,24.48
2019-06-07T09:23:15.726Z,24.58
2019-06-07T09:24:07.053Z,24.42
2019-06-07T09:25:09.427Z,24.39
2019-06-07T09:26:15.427Z,24.53
2019-06-07T09:27:05.334Z,24.65
2019-06-07T09:28:07.936Z,24.55
2019-06-07T09:29:06.857Z,24.57
2019-06-07T09:30:08.872Z,24.43
2019-06-07T09:31:06.953Z,24.28
2019-06-07T09:32:09.684Z,24.42
2019-06-07T09:33:06.626Z,24.57
2019-06-07T09:34:08.315Z,24.60
2019-06-07T09:35:08.497Z,24.53
2019-06-07T09:36:07.208Z,24.57
2019-06-07T09:37:24.464Z,24.66
2019-06-07T09:38:11.014Z,24.80
2019-06-07T09:39:07.622Z,24.99
2019-06-07T09:40:19.406Z,24.93
2019-06-07T09:41:03.181Z,24.89
2019-06-07T09:42:08.373Z,24.81
2019-06-07T09:43:47.972Z,24.76
2019-06-07T09:44:19.290Z,24.55
2019-06-07T09:45:05.676Z,24.57
2019-06-07T09:46:11.071Z,24.85
2019-06-07T09:47:22.251Z,25.08
2019-06-07T09:48:05.696Z,25.28
2019-06-07T09:49:14.061Z,25.50
2019-06-07T09:50:08.377Z,25.58
2019-06-07T09:51:09.532Z,25.55
2019-06-07T09:52:03.610Z,25.43
2019-06-07T09:53:10.558Z,25.77
2019-06-07T09:54:06.862Z,25.73
2019-06-07T09:55:09.458Z,25.72
2019-06-07T09:56:04.526Z,25.46
2019-06-07T09:57:07.002Z,25.25
2019-06-07T09:58:30.296Z,25.33
2019-06-07T09:59:04.777Z,25.43
2019-06-07T10:00:33.570Z,25.44
2019-06-07T10:01:06.199Z,25.66
2019-06-07T10:02:03.626Z,26.02
2019-06-07T10:03:08.816Z,26.18
2019-06-07T10:04:07.371Z,26.26
2019-06-07T10:05:05.216Z,26.26
2019-06-07T10:06:07.572Z,26.26
2019-06-07T10:07:10.481Z,26.22
2019-06-07T10:08:20.959Z,25.99
2019-06-07T10:11:02.648Z,25.72
2019-06-07T10:12:02.349Z,25.65
2019-06-07T10:13:03.801Z,25.77
2019-06-07T10:14:02.481Z,25.55
2019-06-07T10:15:02.920Z,25.69
2019-06-07T10:16:02.799Z,25.93
2019-06-07T10:17:03.202Z,26.25
2019-06-07T10:18:02.820Z,26.71
2019-06-07T10:19:03.655Z,26.92
2019-06-07T10:20:03.923Z,26.85
2019-06-07T10:21:03.740Z,26.70
2019-06-07T10:22:03.368Z,26.74
2019-06-07T10:23:03.706Z,26.66
2019-06-07T10:24:03.494Z,26.77
2019-06-07T10:25:02.488Z,26.71
2019-06-07T10:26:03.961Z,26.70
2019-06-07T10:27:03.885Z,26.60
2019-06-07T10:28:03.736Z,26.38
2019-06-07T10:29:04.894Z,26.10
2019-06-07T10:30:03.963Z,25.84
2019-06-07T10:31:02.520Z,25.87
2019-06-07T10:32:02.500Z,26.36
2019-06-07T10:33:02.524Z,26.40
2019-06-07T10:34:02.516Z,26.74
2019-06-07T10:35:03.305Z,26.65
2019-06-07T10:36:02.554Z,26.97
2019-06-07T10:37:03.802Z,27.22
2019-06-07T10:38:02.588Z,26.93
2019-06-07T10:39:02.940Z,26.55
2019-06-07T10:40:02.928Z,26.38
2019-06-07T10:41:02.871Z,26.43
2019-06-07T10:42:04.055Z,26.22
2019-06-07T10:43:03.053Z,25.90
2019-06-07T10:44:03.342Z,25.60
2019-06-07T10:45:04.411Z,25.36
2019-06-07T10:46:03.671Z,25.47
2019-06-07T10:47:03.845Z,25.48
2019-06-07T10:48:03.568Z,25.35
2019-06-07T10:49:03.789Z,25.54
2019-06-07T10:50:03.802Z,25.69
2019-06-07T10:51:04.088Z,25.81
2019-06-07T10:52:04.785Z,25.68
2019-06-07T10:53:02.679Z,25.81
2019-06-07T10:54:10.805Z,26.22
2019-06-07T10:55:02.695Z,26.02
2019-06-07T10:56:02.986Z,26.02
2019-06-07T10:57:02.957Z,25.87
2019-06-07T10:58:02.828Z,25.51
2019-06-07T10:59:03.155Z,25.48
2019-06-07T11:00:03.489Z,25.60
2019-06-07T11:01:03.374Z,25.83
2019-06-07T11:02:03.471Z,25.85
2019-06-07T11:03:03.616Z,26.06
2019-06-07T11:04:03.390Z,26.00
2019-06-07T11:05:03.679Z,26.03
2019-06-07T11:06:03.730Z,26.26
2019-06-07T11:07:04.415Z,26.18
2019-06-07T11:08:03.877Z,26.16
2019-06-07T11:09:03.792Z,26.03
2019-06-07T11:10:09.367Z,26.02
2019-06-07T11:11:03.830Z,25.99
2019-06-07T11:12:04.221Z,26.16
2019-06-07T11:13:04.027Z,26.13
2019-06-07T11:14:04.293Z,26.00
2019-06-07T11:15:02.855Z,25.98
2019-06-07T11:16:02.863Z,26.02
2019-06-07T11:17:02.869Z,26.06
2019-06-07T11:18:02.887Z,26.37
2019-06-07T11:19:02.939Z,26.66
2019-06-07T11:20:02.890Z,26.84
2019-06-07T11:21:02.900Z,26.65
2019-06-07T11:22:02.907Z,26.44
2019-06-07T11:23:02.916Z,26.51
2019-06-07T11:24:02.925Z,26.37
2019-06-07T11:25:03.539Z,26.21
2019-06-07T11:26:02.946Z,26.28
2019-06-07T11:27:02.945Z,26.15
2019-06-07T11:28:02.954Z,26.28
2019-06-07T11:29:02.969Z,26.25
2019-06-07T11:30:02.988Z,26.38
2019-06-07T11:31:02.975Z,26.85
2019-06-07T11:32:02.982Z,27.42
2019-06-07T11:33:02.989Z,27.87
2019-06-07T11:34:02.999Z,27.93
2019-06-07T11:35:03.013Z,28.00
2019-06-07T11:36:03.013Z,27.95
2019-06-07T11:37:03.066Z,27.58
2019-06-07T11:38:03.061Z,27.20
2019-06-07T11:39:03.039Z,26.95
2019-06-07T11:40:03.044Z,26.96
2019-06-07T11:41:03.055Z,26.75
2019-06-07T11:42:03.058Z,26.85
2019-06-07T11:43:03.144Z,26.68
2019-06-07T11:44:03.077Z,26.90
2019-06-07T11:45:03.076Z,26.85
2019-06-07T11:46:03.082Z,26.65
2019-06-07T11:47:03.092Z,26.19
2019-06-07T11:48:03.096Z,25.88
2019-06-07T11:49:03.162Z,26.22
2019-06-07T11:50:03.104Z,26.43
2019-06-07T11:51:03.110Z,26.71
2019-06-07T11:52:03.114Z,27.02
2019-06-07T11:53:03.124Z,27.48
2019-06-07T11:54:03.129Z,27.93
2019-06-07T11:55:03.138Z,28.26
2019-06-07T11:56:03.145Z,28.22
2019-06-07T11:57:03.149Z,28.17
2019-06-07T11:58:03.168Z,28.22
2019-06-07T11:59:03.164Z,28.27
2019-06-07T12:00:03.171Z,28.42
2019-06-07T12:01:03.181Z,27.98
2019-06-07T12:02:03.188Z,27.59
2019-06-07T12:03:03.194Z,27.27
2019-06-07T12:04:03.202Z,27.11
2019-06-07T12:05:03.207Z,26.93
2019-06-07T12:06:03.213Z,27.12
2019-06-07T12:07:03.242Z,27.44
2019-06-07T12:08:03.225Z,27.42
2019-06-07T12:09:03.238Z,27.54
2019-06-07T12:10:03.240Z,27.86
2019-06-07T12:11:03.248Z,27.85
2019-06-07T12:12:03.255Z,27.26
2019-06-07T12:13:03.260Z,27.17
2019-06-07T12:14:03.268Z,27.27
2019-06-07T12:15:03.275Z,27.21
2019-06-07T12:16:03.279Z,27.39
2019-06-07T12:17:03.315Z,27.65
2019-06-07T12:18:03.291Z,27.54
2019-06-07T12:19:03.307Z,27.37
2019-06-07T12:20:03.412Z,27.33
2019-06-07T12:21:03.308Z,26.89
2019-06-07T12:22:03.319Z,26.55
2019-06-07T12:23:03.321Z,26.21
2019-06-07T12:24:03.353Z,26.03
2019-06-07T12:25:05.814Z,25.98
2019-06-07T12:26:03.326Z,26.28
2019-06-07T12:27:03.351Z,26.34
2019-06-07T12:28:03.330Z,26.38
2019-06-07T12:29:03.334Z,26.25
2019-06-07T12:30:09.464Z,25.98
2019-06-07T12:31:03.337Z,25.90
2019-06-07T12:32:03.340Z,25.77
2019-06-07T12:33:03.347Z,25.91
2019-06-07T12:34:03.342Z,25.98
2019-06-07T12:35:03.344Z,25.83
2019-06-07T12:36:03.347Z,25.68
2019-06-07T12:37:03.345Z,25.63
2019-06-07T12:38:03.348Z,25.50
2019-06-07T12:39:03.347Z,25.50
2019-06-07T12:40:03.363Z,25.43
2019-06-07T12:41:03.348Z,25.46
2019-06-07T12:42:03.354Z,25.31
2019-06-07T12:43:03.349Z,25.33
2019-06-07T12:44:03.380Z,25.31
2019-06-07T12:45:03.349Z,25.31
2019-06-07T12:46:03.355Z,25.11
2019-06-07T12:47:03.356Z,25.10
2019-06-07T12:48:03.398Z,25.06
2019-06-07T12:49:03.348Z,25.10
2019-06-07T12:50:03.351Z,25.10
2019-06-07T12:51:03.352Z,25.14
2019-06-07T12:52:03.348Z,25.21
2019-06-07T12:53:03.345Z,25.22
2019-06-07T12:54:03.346Z,25.11
2019-06-07T12:55:03.356Z,25.06
2019-06-07T12:56:03.344Z,25.10
2019-06-07T12:57:03.342Z,25.08
2019-06-07T12:58:03.342Z,25.16
2019-06-07T12:59:03.340Z,25.08